Time,TemperatureF,DewpointF,PressureIn,WindDirection,WindDirectionDegrees,WindSpeedMPH,WindSpeedGustMPH,Humidity,HourlyPrecipIn,Conditions,Clouds,dailyrainin,SoftwareType,DateUTC
2013-06-03 00:03:00,51.7,48.3,30.02,ESE,104,0.0,0.0,88,0.00,,,0.00,WeatherDisplay:10.37,2013-06-03 05:03:00,
2013-06-03 00:08:00,51.8,48.4,30.02,East,94,0.0,0.0,88,0.00,,,0.00,WeatherDisplay:10.37,2013-06-03 05:08:00,
2013-06-03 00:13:00,51.8,48.4,30.02,East,94,0.0,0.0,88,0.00,,,0.00,WeatherDisplay:10.37,2013-06-03 05:13:00,
2013-06-03 00:18:00,51.6,48.2,30.02,East,93,0.0,0.0,88,0.00,,,0.00,WeatherDisplay:10.37,2013-06-03 05:18:00,
2013-06-03 00:23:00,51.5,48.4,30.02,SW,224,0.0,1.1,89,0.00,,,0.00,WeatherDisplay:10.37,2013-06-03 05:23:00,
2013-06-03 00:28:00,51.4,48.3,30.02,SW,224,0.0,0.0,89,0.00,,,0.00,WeatherDisplay:10.37,2013-06-03 05:28:00,
2013-06-03 00:33:00,51.4,48.6,30.02,ESE,122,0.3,1.1,90,0.00,,,0.00,WeatherDisplay:10.37,2013-06-03 05:33:00,
2013-06-03 00:38:00,51.6,48.8,30.02,SE,139,0.0,0.0,90,0.00,,,0.00,WeatherDisplay:10.37,2013-06-03 05:38:00,
2013-06-03 00:43:00,51.5,48.7,30.03,SE,136,0.1,1.1,90,0.00,,,0.00,WeatherDisplay:10.37,2013-06-03 05:43:00,
2013-06-03 00:48:00,51.5,48.7,30.03,SSE,158,0.2,1.1,90,0.00,,,0.00,WeatherDisplay:10.37,2013-06-03 05:48:00,
2013-06-03 00:53:00,51.5,49.0,30.03,SSE,159,1.3,3.5,91,0.00,,,0.00,WeatherDisplay:10.37,2013-06-03 05:53:00,
2013-06-03 00:58:00,51.6,49.1,30.03,SSE,148,0.1,2.3,91,0.00,,,0.00,WeatherDisplay:10.37,2013-06-03 05:58:00,
2013-06-03 01:03:00,51.8,49.3,30.03,SSE,162,0.1,0.0,91,0.00,,,0.00,WeatherDisplay:10.37,2013-06-03 06:03:00,
2013-06-03 01:08:00,51.9,49.1,30.03,South,169,0.0,0.0,90,0.00,,,0.00,WeatherDisplay:10.37,2013-06-03 06:08:00,
2013-06-03 01:13:00,52.0,49.2,30.03,SW,219,0.0,0.0,90,0.00,,,0.00,WeatherDisplay:10.37,2013-06-03 06:13:00,
2013-06-03 01:18:00,52.1,49.3,30.03,West,259,0.0,1.1,90,0.00,,,0.00,WeatherDisplay:10.37,2013-06-03 06:18:00,
2013-06-03 01:23:00,52.0,49.2,30.03,West,270,0.0,0.0,90,0.00,,,0.00,WeatherDisplay:10.37,2013-06-03 06:23:00,
2013-06-03 01:28:00,52.0,49.2,30.03,SW,226,0.1,1.1,90,0.00,,,0.00,WeatherDisplay:10.37,2013-06-03 06:28:00,
2013-06-03 01:33:00,52.0,49.2,30.03,SW,217,0.1,1.1,90,0.00,,,0.00,WeatherDisplay:10.37,2013-06-03 06:33:00,
2013-06-03 01:38:00,52.1,49.6,30.03,SSE,150,0.0,0.0,91,0.00,,,0.00,WeatherDisplay:10.37,2013-06-03 06:38:00,
2013-06-03 01:43:00,52.1,49.3,30.03,ESE,122,0.4,1.1,90,0.00,,,0.00,WeatherDisplay:10.37,2013-06-03 06:43:00,
2013-06-03 01:48:00,52.3,49.5,30.03,ESE,105,1.1,2.3,90,0.00,,,0.00,WeatherDisplay:10.37,2013-06-03 06:48:00,
2013-06-03 01:53:00,52.4,49.3,30.03,SE,125,0.2,1.1,89,0.00,,,0.00,WeatherDisplay:10.37,2013-06-03 06:53:00,
2013-06-03 01:58:00,52.5,49.7,30.03,ESE,111,0.9,1.1,90,0.00,,,0.00,WeatherDisplay:10.37,2013-06-03 06:58:00,
2013-06-03 02:04:00,52.6,49.8,30.03,SE,125,1.9,2.3,90,0.00,,,0.00,WeatherDisplay:10.37,2013-06-03 07:04:00,
2013-06-03 02:09:00,52.6,49.8,30.03,SE,131,1.3,2.3,90,0.00,,,0.00,WeatherDisplay:10.37,2013-06-03 07:09:00,
2013-06-03 02:14:00,52.6,49.4,30.03,SE,136,1.5,3.5,89,0.00,,,0.00,WeatherDisplay:10.37,2013-06-03 07:14:00,
2013-06-03 02:19:00,52.7,49.5,30.03,SSE,148,0.3,1.1,89,0.00,,,0.00,WeatherDisplay:10.37,2013-06-03 07:19:00,
2013-06-03 02:24:00,52.7,49.8,30.03,SSE,165,0.0,0.0,90,0.00,,,0.00,WeatherDisplay:10.37,2013-06-03 07:24:00,
2013-06-03 02:29:00,52.6,49.4,30.03,SSE,165,0.0,0.0,89,0.00,,,0.00,WeatherDisplay:10.37,2013-06-03 07:29:00,
2013-06-03 02:34:00,52.6,49.4,30.03,SSE,165,0.0,0.0,89,0.00,,,0.00,WeatherDisplay:10.37,2013-06-03 07:34:00,
2013-06-03 02:39:00,52.7,48.9,30.03,SE,125,0.0,0.0,87,0.00,,,0.00,WeatherDisplay:10.37,2013-06-03 07:39:00,
2013-06-03 02:44:00,52.7,48.9,30.03,ESE,113,0.0,1.1,87,0.00,,,0.00,WeatherDisplay:10.37,2013-06-03 07:44:00,
2013-06-03 02:49:00,52.7,48.9,30.03,South,177,1.6,1.6,87,0.00,,,0.00,WeatherDisplay:10.37,2013-06-03 07:49:00,
2013-06-03 02:54:00,52.6,48.8,30.03,SE,131,1.3,2.3,87,0.00,,,0.00,WeatherDisplay:10.37,2013-06-03 07:54:00,
2013-06-03 02:59:00,52.5,49.0,30.03,SE,146,1.3,2.3,88,0.00,,,0.00,WeatherDisplay:10.37,2013-06-03 07:59:00,
2013-06-03 03:04:00,52.4,48.9,30.03,SSE,160,0.0,0.0,88,0.00,,,0.00,WeatherDisplay:10.37,2013-06-03 08:04:00,
2013-06-03 03:09:00,52.3,48.9,30.03,SSE,161,0.0,0.0,88,0.00,,,0.00,WeatherDisplay:10.37,2013-06-03 08:09:00,
2013-06-03 03:14:00,52.2,48.8,30.03,SSE,160,0.0,0.0,88,0.00,,,0.00,WeatherDisplay:10.37,2013-06-03 08:14:00,
2013-06-03 03:19:00,52.0,48.6,30.03,SSE,160,0.0,0.0,88,0.00,,,0.00,WeatherDisplay:10.37,2013-06-03 08:19:00,
2013-06-03 03:24:00,51.8,48.4,30.03,SSE,160,0.0,0.0,88,0.00,,,0.00,WeatherDisplay:10.37,2013-06-03 08:24:00,
2013-06-03 03:29:00,51.7,48.6,30.03,ESE,108,0.0,0.0,89,0.00,,,0.00,WeatherDisplay:10.37,2013-06-03 08:29:00,
2013-06-03 03:34:00,51.7,48.9,30.03,ESE,108,0.0,0.0,90,0.00,,,0.00,WeatherDisplay:10.37,2013-06-03 08:34:00,
2013-06-03 03:39:00,51.5,48.7,30.03,ESE,110,0.0,0.0,90,0.00,,,0.00,WeatherDisplay:10.37,2013-06-03 08:39:00,
2013-06-03 03:44:00,50.8,48.0,30.03,ESE,110,0.0,0.0,90,0.00,,,0.00,WeatherDisplay:10.37,2013-06-03 08:44:00,
2013-06-03 03:49:00,50.1,47.6,30.03,ESE,110,0.0,0.0,91,0.00,,,0.00,WeatherDisplay:10.37,2013-06-03 08:49:00,
2013-06-03 03:54:00,49.7,47.5,30.03,ESE,110,0.0,0.0,92,0.00,,,0.00,WeatherDisplay:10.37,2013-06-03 08:54:00,
2013-06-03 03:59:00,49.8,47.9,30.03,ESE,110,0.0,0.0,93,0.00,,,0.00,WeatherDisplay:10.37,2013-06-03 08:59:00,
2013-06-03 04:04:00,49.8,47.9,30.03,ESE,110,0.0,0.0,93,0.00,,,0.00,WeatherDisplay:10.37,2013-06-03 09:04:00,
2013-06-03 04:09:00,49.9,48.0,30.03,ESE,109,0.0,0.0,93,0.00,,,0.00,WeatherDisplay:10.37,2013-06-03 09:09:00,
2013-06-03 04:14:00,49.8,47.9,30.03,North,354,0.0,0.0,93,0.00,,,0.00,WeatherDisplay:10.37,2013-06-03 09:14:00,
2013-06-03 04:19:00,50.0,48.1,30.03,North,354,0.0,0.0,93,0.00,,,0.00,WeatherDisplay:10.37,2013-06-03 09:19:00,
2013-06-03 04:24:00,50.3,48.1,30.03,ENE,77,0.0,0.0,92,0.00,,,0.00,WeatherDisplay:10.37,2013-06-03 09:24:00,
2013-06-03 04:29:00,50.0,47.8,30.03,ENE,78,0.0,0.0,92,0.00,,,0.00,WeatherDisplay:10.37,2013-06-03 09:29:00,
2013-06-03 04:34:00,49.3,47.1,30.03,ENE,78,0.0,0.0,92,0.00,,,0.00,WeatherDisplay:10.37,2013-06-03 09:34:00,
2013-06-03 04:39:00,48.8,46.9,30.04,East,84,0.0,0.0,93,0.00,,,0.00,WeatherDisplay:10.37,2013-06-03 09:39:00,
2013-06-03 04:44:00,48.6,47.0,30.04,SE,142,0.0,0.0,94,0.00,,,0.00,WeatherDisplay:10.37,2013-06-03 09:44:00,
2013-06-03 04:49:00,48.3,46.7,30.04,SE,143,0.0,0.0,94,0.00,,,0.00,WeatherDisplay:10.37,2013-06-03 09:49:00,
2013-06-03 04:54:00,48.2,46.8,30.04,SE,143,0.0,0.0,95,0.00,,,0.00,WeatherDisplay:10.37,2013-06-03 09:54:00,
2013-06-03 05:00:00,48.2,46.8,30.04,SE,143,0.0,0.0,95,0.00,,,0.00,WeatherDisplay:10.37,2013-06-03 10:00:00,
2013-06-03 05:05:00,48.2,46.8,30.04,SE,143,0.0,0.0,95,0.00,CLR,,0.00,WeatherDisplay:10.37,2013-06-03 10:05:00,
2013-06-03 05:10:00,48.1,46.7,30.04,SE,142,0.0,0.0,95,0.00,CLR,,0.00,WeatherDisplay:10.37,2013-06-03 10:10:00,
2013-06-03 05:15:00,48.2,47.1,30.04,SE,142,0.0,0.0,96,0.00,CLR,,0.00,WeatherDisplay:10.37,2013-06-03 10:15:00,
2013-06-03 05:20:00,48.2,46.8,30.04,SE,129,0.0,0.0,95,0.00,CLR,,0.00,WeatherDisplay:10.37,2013-06-03 10:20:00,
2013-06-03 05:25:00,47.9,46.5,30.04,SE,130,0.0,0.0,95,0.00,CLR,,0.00,WeatherDisplay:10.37,2013-06-03 10:25:00,
2013-06-03 05:30:00,47.8,46.4,30.04,SE,129,0.0,0.0,95,0.00,CLR,,0.00,WeatherDisplay:10.37,2013-06-03 10:30:00,
2013-06-03 05:35:00,47.7,46.3,30.04,SE,129,0.0,0.0,95,0.00,CLR,,0.00,WeatherDisplay:10.37,2013-06-03 10:35:00,
2013-06-03 05:40:00,47.6,46.5,30.04,SE,130,0.0,0.0,96,0.00,CLR,,0.00,WeatherDisplay:10.37,2013-06-03 10:40:00,
2013-06-03 05:45:00,47.6,46.5,30.05,SE,130,0.0,0.0,96,0.00,CLR,,0.00,WeatherDisplay:10.37,2013-06-03 10:45:00,
2013-06-03 05:50:00,47.5,46.4,30.05,SE,129,0.0,0.0,96,0.00,CLR,,0.00,WeatherDisplay:10.37,2013-06-03 10:50:00,
2013-06-03 05:55:00,47.5,46.4,30.05,SE,130,0.0,0.0,96,0.00,CLR,,0.00,WeatherDisplay:10.37,2013-06-03 10:55:00,
2013-06-03 06:00:00,47.5,46.4,30.05,SE,130,0.0,0.0,96,0.00,CLR,,0.00,WeatherDisplay:10.37,2013-06-03 11:00:00,
2013-06-03 06:05:00,47.5,46.4,30.05,SE,130,0.0,0.0,96,0.00,CLR,,0.00,WeatherDisplay:10.37,2013-06-03 11:05:00,
2013-06-03 06:10:00,47.7,46.9,30.05,SE,130,0.0,0.0,97,0.00,CLR,,0.00,WeatherDisplay:10.37,2013-06-03 11:10:00,
2013-06-03 06:15:00,48.3,47.5,30.05,SE,129,0.0,0.0,97,0.00,CLR,,0.00,WeatherDisplay:10.37,2013-06-03 11:15:00,
2013-06-03 06:20:00,48.4,47.6,30.05,SE,129,0.0,0.0,97,0.00,CLR,,0.00,WeatherDisplay:10.37,2013-06-03 11:20:00,
2013-06-03 06:25:00,48.5,47.4,30.05,SE,129,0.0,0.0,96,0.00,CLR,,0.00,WeatherDisplay:10.37,2013-06-03 11:25:00,
2013-06-03 06:30:00,48.5,47.4,30.05,SE,130,0.0,0.0,96,0.00,CLR,,0.00,WeatherDisplay:10.37,2013-06-03 11:30:00,
2013-06-03 06:35:00,48.7,47.6,30.05,SE,130,0.0,0.0,96,0.00,CLR,,0.00,WeatherDisplay:10.37,2013-06-03 11:35:00,
2013-06-03 06:40:00,48.7,47.6,30.05,SE,130,0.0,0.0,96,0.00,CLR,,0.00,WeatherDisplay:10.37,2013-06-03 11:40:00,
2013-06-03 06:45:00,49.0,48.2,30.06,SE,131,0.0,0.0,97,0.00,CLR,,0.00,WeatherDisplay:10.37,2013-06-03 11:45:00,
2013-06-03 06:50:00,49.9,49.1,30.06,SE,135,0.0,0.0,97,0.00,CLR,,0.00,WeatherDisplay:10.37,2013-06-03 11:50:00,
2013-06-03 06:55:00,50.8,49.7,30.06,SE,135,0.0,0.0,96,0.00,CLR,,0.00,WeatherDisplay:10.37,2013-06-03 11:55:00,
2013-06-03 07:00:00,51.2,49.8,30.06,SSE,161,1.4,2.3,95,0.00,CLR,,0.00,WeatherDisplay:10.37,2013-06-03 12:00:00,
2013-06-03 07:05:00,51.9,50.2,30.06,SSW,197,1.4,2.0,94,0.00,CLR,,0.00,WeatherDisplay:10.37,2013-06-03 12:05:00,
2013-06-03 07:10:00,52.8,50.2,30.07,SSE,160,1.0,2.3,91,0.00,CLR,,0.00,WeatherDisplay:10.37,2013-06-03 12:10:00,
2013-06-03 07:15:00,53.7,50.5,30.07,SSW,201,2.5,4.6,89,0.00,CLR,,0.00,WeatherDisplay:10.37,2013-06-03 12:15:00,
2013-06-03 07:20:00,54.4,50.9,30.07,SW,231,1.8,4.0,88,0.00,CLR,,0.00,WeatherDisplay:10.37,2013-06-03 12:20:00,
2013-06-03 07:25:00,54.7,50.9,30.08,SW,217,3.5,5.0,87,0.00,CLR,,0.00,WeatherDisplay:10.37,2013-06-03 12:25:00,
2013-06-03 07:30:00,55.1,51.0,30.08,SSW,194,4.2,5.8,86,0.00,CLR,,0.00,WeatherDisplay:10.37,2013-06-03 12:30:00,
2013-06-03 07:35:00,55.5,51.7,30.08,SW,215,3.4,6.0,87,0.00,CLR,,0.00,WeatherDisplay:10.37,2013-06-03 12:35:00,
2013-06-03 07:40:00,56.0,51.2,30.09,South,174,4.1,6.9,84,0.00,CLR,,0.00,WeatherDisplay:10.37,2013-06-03 12:40:00,
2013-06-03 07:45:00,56.6,51.8,30.09,SSW,204,4.0,5.8,84,0.00,CLR,,0.00,WeatherDisplay:10.37,2013-06-03 12:45:00,
2013-06-03 07:50:00,56.9,51.8,30.09,South,175,4.5,5.0,83,0.00,CLR,,0.00,WeatherDisplay:10.37,2013-06-03 12:50:00,
2013-06-03 07:55:00,57.3,51.9,30.09,South,180,3.9,5.8,82,0.00,CLR,,0.00,WeatherDisplay:10.37,2013-06-03 12:55:00,
2013-06-03 08:00:00,57.5,51.7,30.09,SSW,212,4.1,6.0,81,0.00,CLR,,0.00,WeatherDisplay:10.37,2013-06-03 13:00:00,
2013-06-03 08:05:00,57.6,52.1,30.10,SW,214,4.3,8.1,82,0.00,CLR,,0.00,WeatherDisplay:10.37,2013-06-03 13:05:00,
2013-06-03 08:11:00,57.9,52.1,30.10,SW,217,5.0,6.9,81,0.00,CLR,,0.00,WeatherDisplay:10.37,2013-06-03 13:11:00,
2013-06-03 08:16:00,58.4,51.6,30.10,South,172,5.5,5.8,78,0.00,CLR,,0.00,WeatherDisplay:10.37,2013-06-03 13:16:00,
2013-06-03 08:21:00,59.0,52.5,30.11,South,180,5.2,6.9,79,0.00,CLR,,0.00,WeatherDisplay:10.37,2013-06-03 13:21:00,
2013-06-03 08:26:00,59.5,52.3,30.10,South,177,5.0,6.9,77,0.00,CLR,,0.00,WeatherDisplay:10.37,2013-06-03 13:26:00,
2013-06-03 08:31:00,59.6,51.7,30.10,SSW,208,4.0,4.6,75,0.00,CLR,,0.00,WeatherDisplay:10.37,2013-06-03 13:31:00,
2013-06-03 08:36:00,59.9,50.8,30.10,South,184,4.7,6.9,72,0.00,CLR,,0.00,WeatherDisplay:10.37,2013-06-03 13:36:00,
2013-06-03 08:42:00,60.2,50.8,30.10,SW,216,4.3,5.8,71,0.00,CLR,,0.00,WeatherDisplay:10.37,2013-06-03 13:42:00,
2013-06-03 08:47:00,60.4,52.1,30.10,SSW,211,3.5,6.0,74,0.00,CLR,,0.00,WeatherDisplay:10.37,2013-06-03 13:47:00,
2013-06-03 08:52:00,60.8,51.0,30.10,SSW,212,4.8,5.8,70,0.00,CLR,,0.00,WeatherDisplay:10.37,2013-06-03 13:52:00,
2013-06-03 08:57:00,60.9,51.0,30.10,South,172,4.9,6.9,70,0.00,CLR,,0.00,WeatherDisplay:10.37,2013-06-03 13:57:00,
2013-06-03 09:02:00,60.9,50.3,30.11,SSE,156,3.5,4.6,68,0.00,CLR,,0.00,WeatherDisplay:10.37,2013-06-03 14:02:00,
2013-06-03 09:07:00,61.1,50.8,30.10,SSE,156,4.0,5.8,69,0.00,CLR,,0.00,WeatherDisplay:10.37,2013-06-03 14:07:00,
2013-06-03 09:12:00,61.3,49.8,30.10,SSE,165,5.4,8.1,66,0.00,CLR,,0.00,WeatherDisplay:10.37,2013-06-03 14:12:00,
2013-06-03 09:17:00,61.6,49.7,30.10,SSW,195,5.4,8.1,65,0.00,CLR,,0.00,WeatherDisplay:10.37,2013-06-03 14:17:00,
2013-06-03 09:22:00,61.6,50.1,30.10,South,186,3.4,6.9,66,0.00,CLR,,0.00,WeatherDisplay:10.37,2013-06-03 14:22:00,
2013-06-03 09:27:00,61.6,48.9,30.10,SW,218,3.3,8.1,63,0.00,CLR,,0.00,WeatherDisplay:10.37,2013-06-03 14:27:00,
2013-06-03 09:32:00,61.5,49.6,30.10,SSE,156,5.4,9.2,65,0.00,CLR,,0.00,WeatherDisplay:10.37,2013-06-03 14:32:00,
2013-06-03 09:37:00,61.8,49.9,30.10,SW,226,4.3,7.0,65,0.00,CLR,,0.00,WeatherDisplay:10.37,2013-06-03 14:37:00,
2013-06-03 09:42:00,62.0,48.4,30.09,SE,145,2.9,5.8,61,0.00,CLR,,0.00,WeatherDisplay:10.37,2013-06-03 14:42:00,
2013-06-03 09:47:00,61.9,50.0,30.09,West,259,4.9,4.9,65,0.00,CLR,,0.00,WeatherDisplay:10.37,2013-06-03 14:47:00,
2013-06-03 09:52:00,62.0,47.5,30.09,SE,138,2.8,6.0,59,0.00,CLR,,0.00,WeatherDisplay:10.37,2013-06-03 14:52:00,
2013-06-03 09:57:00,62.2,48.1,30.09,SE,145,5.3,6.0,60,0.00,CLR,,0.00,WeatherDisplay:10.37,2013-06-03 14:57:00,
2013-06-03 10:02:00,61.6,46.7,30.09,SW,236,2.5,4.6,58,0.00,CLR,,0.00,WeatherDisplay:10.37,2013-06-03 15:02:00,
2013-06-03 10:07:00,61.3,46.8,30.09,SSE,154,0.4,3.5,59,0.00,CLR,,0.00,WeatherDisplay:10.37,2013-06-03 15:07:00,
2013-06-03 10:12:00,61.6,47.6,30.09,South,173,2.9,4.6,60,0.00,CLR,,0.00,WeatherDisplay:10.37,2013-06-03 15:12:00,
2013-06-03 10:17:00,62.3,47.8,30.08,SE,134,2.1,3.0,59,0.00,CLR,,0.00,WeatherDisplay:10.37,2013-06-03 15:17:00,
2013-06-03 10:23:00,62.0,48.0,30.08,SE,137,2.4,3.5,60,0.00,CLR,,0.00,WeatherDisplay:10.37,2013-06-03 15:23:00,
2013-06-03 10:28:00,61.7,45.8,30.08,SE,137,2.0,3.5,56,0.00,CLR,,0.00,WeatherDisplay:10.37,2013-06-03 15:28:00,
2013-06-03 10:33:00,62.1,47.6,30.08,WSW,238,2.2,4.6,59,0.00,CLR,,0.00,WeatherDisplay:10.37,2013-06-03 15:33:00,
2013-06-03 10:37:00,62.6,48.1,30.08,SW,226,1.0,3.5,59,0.00,CLR,,0.00,WeatherDisplay:10.37,2013-06-03 15:37:00,
2013-06-03 10:43:00,63.0,47.1,30.08,South,170,0.9,1.1,56,0.00,CLR,,0.00,WeatherDisplay:10.37,2013-06-03 15:43:00,
2013-06-03 10:48:00,63.7,48.2,30.07,SE,141,0.3,1.1,57,0.00,CLR,,0.00,WeatherDisplay:10.37,2013-06-03 15:48:00,
2013-06-03 10:53:00,64.5,48.9,30.08,SE,129,0.0,1.0,57,0.00,CLR,,0.00,WeatherDisplay:10.37,2013-06-03 15:53:00,
2013-06-03 10:58:00,64.3,46.3,30.07,ESE,107,0.0,0.0,52,0.00,CLR,,0.00,WeatherDisplay:10.37,2013-06-03 15:58:00,
2013-06-03 11:03:00,64.7,48.6,30.08,East,86,2.1,5.8,56,0.00,CLR,,0.00,WeatherDisplay:10.37,2013-06-03 16:03:00,
2013-06-03 11:08:00,65.1,49.0,30.08,SE,145,3.8,5.8,56,0.00,CLR,,0.00,WeatherDisplay:10.37,2013-06-03 16:08:00,
2013-06-03 11:13:00,65.5,47.9,30.08,SW,228,3.4,8.1,53,0.00,CLR,,0.00,WeatherDisplay:10.37,2013-06-03 16:13:00,
2013-06-03 11:18:00,65.3,50.1,30.07,SSE,155,7.0,9.2,58,0.00,CLR,,0.00,WeatherDisplay:10.37,2013-06-03 16:18:00,
2013-06-03 11:23:00,65.0,47.4,30.07,SSE,158,2.9,5.8,53,0.00,CLR,,0.00,WeatherDisplay:10.37,2013-06-03 16:23:00,
2013-06-03 11:28:00,64.9,49.8,30.07,SE,134,2.0,4.6,58,0.00,CLR,,0.00,WeatherDisplay:10.37,2013-06-03 16:28:00,
2013-06-03 11:33:00,64.9,47.9,30.07,ENE,58,1.0,3.0,54,0.00,CLR,,0.00,WeatherDisplay:10.37,2013-06-03 16:33:00,
2013-06-03 11:38:00,65.3,46.7,30.07,SE,136,1.2,5.8,51,0.00,CLR,,0.00,WeatherDisplay:10.37,2013-06-03 16:38:00,
2013-06-03 11:43:00,65.8,48.7,30.07,SSE,155,3.7,4.6,54,0.00,CLR,,0.00,WeatherDisplay:10.37,2013-06-03 16:43:00,
2013-06-03 11:48:00,66.0,47.3,30.07,SSW,197,2.8,5.8,51,0.00,CLR,,0.00,WeatherDisplay:10.37,2013-06-03 16:48:00,
2013-06-03 11:53:00,65.5,46.9,30.07,East,96,1.6,3.5,51,0.00,CLR,,0.00,WeatherDisplay:10.37,2013-06-03 16:53:00,
2013-06-03 11:58:00,65.0,49.4,30.07,East,79,0.5,3.5,57,0.00,CLR,,0.00,WeatherDisplay:10.37,2013-06-03 16:58:00,
2013-06-03 12:03:00,64.7,48.2,30.06,East,89,0.0,0.0,55,0.00,CLR,,0.00,WeatherDisplay:10.37,2013-06-03 17:03:00,
2013-06-03 12:08:00,65.5,48.9,30.06,SSE,167,1.9,4.6,55,0.00,CLR,,0.00,WeatherDisplay:10.37,2013-06-03 17:08:00,
2013-06-03 12:13:00,66.0,49.8,30.06,ESE,114,5.3,8.1,56,0.00,CLR,,0.00,WeatherDisplay:10.37,2013-06-03 17:13:00,
2013-06-03 12:18:00,65.7,47.6,30.06,South,184,2.0,4.6,52,0.00,CLR,,0.00,WeatherDisplay:10.37,2013-06-03 17:18:00,
2013-06-03 12:23:00,65.4,47.3,30.06,North,5,1.4,2.3,52,0.00,CLR,,0.00,WeatherDisplay:10.37,2013-06-03 17:23:00,
2013-06-03 12:28:00,65.8,47.7,30.06,SE,126,2.5,3.5,52,0.00,CLR,,0.00,WeatherDisplay:10.37,2013-06-03 17:28:00,
2013-06-03 12:33:00,66.0,46.8,30.05,South,178,0.6,2.3,50,0.00,CLR,,0.00,WeatherDisplay:10.37,2013-06-03 17:33:00,
2013-06-03 12:38:00,66.0,47.3,30.05,West,281,1.5,3.5,51,0.00,CLR,,0.00,WeatherDisplay:10.37,2013-06-03 17:38:00,
2013-06-03 12:43:00,66.0,47.3,30.05,SE,143,4.3,8.1,51,0.00,CLR,,0.00,WeatherDisplay:10.37,2013-06-03 17:43:00,
2013-06-03 12:48:00,66.1,46.9,30.05,East,96,1.6,3.5,50,0.00,CLR,,0.00,WeatherDisplay:10.37,2013-06-03 17:48:00,
2013-06-03 12:53:00,66.2,48.6,30.05,ESE,122,4.1,6.0,53,0.00,CLR,,0.00,WeatherDisplay:10.37,2013-06-03 17:53:00,
2013-06-03 12:59:00,66.3,47.6,30.05,SE,138,1.5,9.2,51,0.00,CLR,,0.00,WeatherDisplay:10.37,2013-06-03 17:59:00,
2013-06-03 13:04:00,66.9,50.2,30.04,NE,48,2.0,3.5,55,0.00,CLR,,0.00,WeatherDisplay:10.37,2013-06-03 18:04:00,
2013-06-03 13:09:00,67.2,50.0,30.04,SE,135,5.6,9.2,54,0.00,CLR,,0.00,WeatherDisplay:10.37,2013-06-03 18:09:00,
2013-06-03 13:14:00,67.0,46.7,30.04,ENE,75,4.6,10.4,48,0.00,CLR,,0.00,WeatherDisplay:10.37,2013-06-03 18:14:00,
2013-06-03 13:19:00,66.7,48.5,30.04,ENE,62,0.6,5.8,52,0.00,CLR,,0.00,WeatherDisplay:10.37,2013-06-03 18:19:00,
2013-06-03 13:24:00,66.6,48.9,30.04,ENE,65,1.3,3.5,53,0.00,CLR,,0.00,WeatherDisplay:10.37,2013-06-03 18:24:00,
2013-06-03 13:29:00,67.0,48.8,30.04,ESE,114,5.4,8.0,52,0.00,CLR,,0.00,WeatherDisplay:10.37,2013-06-03 18:29:00,
2013-06-03 13:34:00,67.1,46.7,30.04,SW,232,3.4,6.0,48,0.00,CLR,,0.00,WeatherDisplay:10.37,2013-06-03 18:34:00,
2013-06-03 13:39:00,67.3,48.5,30.04,SW,217,0.5,1.1,51,0.00,CLR,,0.00,WeatherDisplay:10.37,2013-06-03 18:39:00,
2013-06-03 13:44:00,67.6,47.8,30.04,SSE,163,1.0,2.3,49,0.00,CLR,,0.00,WeatherDisplay:10.37,2013-06-03 18:44:00,
2013-06-03 13:49:00,68.5,47.5,30.04,SE,131,3.5,5.0,47,0.00,CLR,,0.00,WeatherDisplay:10.37,2013-06-03 18:49:00,
2013-06-03 13:54:00,68.6,48.7,30.04,SSW,193,4.8,5.8,49,0.00,CLR,,0.00,WeatherDisplay:10.37,2013-06-03 18:54:00,
2013-06-03 13:59:00,68.6,48.7,30.04,SSW,206,2.6,4.6,49,0.00,CLR,,0.00,WeatherDisplay:10.37,2013-06-03 18:59:00,
2013-06-03 14:04:00,67.9,46.3,30.04,East,96,2.3,4.0,46,0.00,CLR,,0.00,WeatherDisplay:10.37,2013-06-03 19:04:00,
2013-06-03 14:09:00,67.6,46.6,30.03,ESE,110,3.0,6.9,47,0.00,CLR,,0.00,WeatherDisplay:10.37,2013-06-03 19:09:00,
2013-06-03 14:14:00,67.3,47.5,30.03,ENE,68,2.4,4.0,49,0.00,CLR,,0.00,WeatherDisplay:10.37,2013-06-03 19:14:00,
2013-06-03 14:19:00,67.8,48.5,30.03,SE,129,4.9,6.9,50,0.00,CLR,,0.00,WeatherDisplay:10.37,2013-06-03 19:19:00,
2013-06-03 14:24:00,68.2,47.8,30.03,South,184,4.2,6.0,48,0.00,CLR,,0.00,WeatherDisplay:10.37,2013-06-03 19:24:00,
2013-06-03 14:29:00,68.1,47.1,30.03,WSW,238,1.9,4.0,47,0.00,CLR,,0.00,WeatherDisplay:10.37,2013-06-03 19:29:00,
2013-06-03 14:34:00,68.5,46.9,30.03,SE,145,6.6,10.4,46,0.00,CLR,,0.00,WeatherDisplay:10.37,2013-06-03 19:34:00,
2013-06-03 14:39:00,68.5,48.6,30.03,SSE,150,1.3,2.3,49,0.00,CLR,,0.00,WeatherDisplay:10.37,2013-06-03 19:39:00,
2013-06-03 14:44:00,68.9,47.3,30.02,SE,145,1.5,3.5,46,0.00,CLR,,0.00,WeatherDisplay:10.37,2013-06-03 19:44:00,
2013-06-03 14:49:00,69.1,48.0,30.02,ENE,73,4.6,8.1,47,0.00,CLR,,0.00,WeatherDisplay:10.37,2013-06-03 19:49:00,
2013-06-03 14:54:00,68.6,47.0,30.01,SE,139,3.2,5.8,46,0.00,CLR,,0.00,WeatherDisplay:10.37,2013-06-03 19:54:00,
2013-06-03 14:59:00,68.6,49.2,30.01,South,188,2.3,6.0,50,0.00,CLR,,0.00,WeatherDisplay:10.37,2013-06-03 19:59:00,
2013-06-03 15:04:00,69.2,51.3,30.01,South,170,5.9,6.9,53,0.00,CLR,,0.00,WeatherDisplay:10.37,2013-06-03 20:04:00,
2013-06-03 15:09:00,69.2,48.7,30.01,SSW,205,3.8,5.0,48,0.00,CLR,,0.00,WeatherDisplay:10.37,2013-06-03 20:09:00,
2013-06-03 15:14:00,69.4,47.7,30.01,South,188,1.3,4.6,46,0.00,CLR,,0.00,WeatherDisplay:10.37,2013-06-03 20:14:00,
2013-06-03 15:19:00,69.7,48.6,30.02,WSW,256,3.1,3.5,47,0.00,CLR,,0.00,WeatherDisplay:10.37,2013-06-03 20:19:00,
2013-06-03 15:24:00,68.9,48.4,30.01,West,262,1.3,3.5,48,0.00,CLR,,0.00,WeatherDisplay:10.37,2013-06-03 20:24:00,
2013-06-03 15:29:00,69.2,49.2,30.01,SSE,148,4.8,6.9,49,0.00,CLR,,0.00,WeatherDisplay:10.37,2013-06-03 20:29:00,
2013-06-03 15:34:00,69.7,49.1,30.01,ESE,120,1.2,4.0,48,0.00,CLR,,0.00,WeatherDisplay:10.37,2013-06-03 20:34:00,
2013-06-03 15:39:00,69.6,50.1,30.01,SE,129,7.1,8.1,50,0.00,CLR,,0.00,WeatherDisplay:10.37,2013-06-03 20:39:00,
2013-06-03 15:44:00,69.4,48.9,30.01,SE,134,3.8,9.2,48,0.00,CLR,,0.00,WeatherDisplay:10.37,2013-06-03 20:44:00,
2013-06-03 15:49:00,69.6,49.0,30.01,SSE,147,2.8,4.0,48,0.00,CLR,,0.00,WeatherDisplay:10.37,2013-06-03 20:49:00,
2013-06-03 15:54:00,69.7,50.2,30.01,SE,131,2.7,6.9,50,0.00,CLR,,0.00,WeatherDisplay:10.37,2013-06-03 20:54:00,
2013-06-03 15:59:00,69.8,49.8,30.01,SW,224,4.6,6.9,49,0.00,CLR,,0.00,WeatherDisplay:10.37,2013-06-03 20:59:00,
2013-06-03 16:04:00,70.0,51.0,30.00,East,90,6.6,10.4,51,0.00,CLR,,0.00,WeatherDisplay:10.37,2013-06-03 21:04:00,
2013-06-03 16:09:00,69.8,50.3,30.00,ESE,113,2.9,5.0,50,0.00,CLR,,0.00,WeatherDisplay:10.37,2013-06-03 21:09:00,
2013-06-03 16:14:00,69.6,49.6,30.00,ESE,123,4.6,10.4,49,0.00,CLR,,0.00,WeatherDisplay:10.37,2013-06-03 21:14:00,
2013-06-03 16:19:00,69.3,49.3,30.00,ESE,120,4.9,6.0,49,0.00,CLR,,0.00,WeatherDisplay:10.37,2013-06-03 21:19:00,
2013-06-03 16:24:00,69.4,49.4,30.00,SE,143,6.3,9.2,49,0.00,CLR,,0.00,WeatherDisplay:10.37,2013-06-03 21:24:00,
2013-06-03 16:29:00,69.8,50.9,30.00,SSE,148,4.0,5.8,51,0.00,CLR,,0.00,WeatherDisplay:10.37,2013-06-03 21:29:00,
2013-06-03 16:34:00,69.9,49.9,30.00,SE,134,1.8,2.3,49,0.00,CLR,,0.00,WeatherDisplay:10.37,2013-06-03 21:34:00,
2013-06-03 16:40:00,70.1,50.0,30.00,East,101,4.6,8.1,49,0.00,CLR,,0.00,WeatherDisplay:10.37,2013-06-03 21:40:00,
2013-06-03 16:45:00,69.9,49.3,30.00,SE,128,6.3,9.2,48,0.00,CLR,,0.00,WeatherDisplay:10.37,2013-06-03 21:45:00,
2013-06-03 16:50:00,69.9,49.9,30.00,ESE,120,7.9,11.5,49,0.00,CLR,,0.00,WeatherDisplay:10.37,2013-06-03 21:50:00,
2013-06-03 16:55:00,69.7,48.6,29.99,SSE,154,0.4,3.5,47,0.00,CLR,,0.00,WeatherDisplay:10.37,2013-06-03 21:55:00,
2013-06-03 17:00:00,69.9,50.9,30.00,SE,143,8.0,12.0,51,0.00,,,0.00,WeatherDisplay:10.37,2013-06-03 22:00:00,
2013-06-03 17:05:00,69.3,49.9,30.00,ESE,123,6.1,9.2,50,0.00,,,0.00,WeatherDisplay:10.37,2013-06-03 22:05:00,
2013-06-03 17:10:00,68.7,49.8,30.00,SE,136,6.9,9.2,51,0.00,,,0.00,WeatherDisplay:10.37,2013-06-03 22:10:00,
2013-06-03 17:15:00,69.2,49.8,30.00,ESE,114,4.4,5.8,50,0.00,,,0.00,WeatherDisplay:10.37,2013-06-03 22:15:00,
2013-06-03 17:20:00,69.4,49.4,30.00,ESE,110,3.6,6.0,49,0.00,,,0.00,WeatherDisplay:10.37,2013-06-03 22:20:00,
2013-06-03 17:25:00,69.5,50.6,30.00,SE,128,9.4,12.7,51,0.00,,,0.00,WeatherDisplay:10.37,2013-06-03 22:25:00,
2013-06-03 17:30:00,69.2,49.2,30.00,ESE,120,2.7,4.0,49,0.00,,,0.00,WeatherDisplay:10.37,2013-06-03 22:30:00,
2013-06-03 17:35:00,68.4,51.1,30.00,SSE,148,5.4,6.9,54,0.00,,,0.00,WeatherDisplay:10.37,2013-06-03 22:35:00,
2013-06-03 17:40:00,68.4,50.6,30.00,ESE,110,2.1,3.5,53,0.00,,,0.00,WeatherDisplay:10.37,2013-06-03 22:40:00,
2013-06-03 17:45:00,68.5,49.7,30.00,ENE,75,1.6,2.3,51,0.00,,,0.00,WeatherDisplay:10.37,2013-06-03 22:45:00,
2013-06-03 17:50:00,68.8,49.9,30.00,ESE,120,6.7,9.2,51,0.00,,,0.00,WeatherDisplay:10.37,2013-06-03 22:50:00,
2013-06-03 17:55:00,69.1,51.8,29.99,SE,129,7.2,10.0,54,0.00,,,0.00,WeatherDisplay:10.37,2013-06-03 22:55:00,
2013-06-03 18:00:00,69.0,51.2,30.00,ESE,105,6.7,10.4,53,0.00,CLR,,0.00,WeatherDisplay:10.37,2013-06-03 23:00:00,
2013-06-03 18:05:00,68.9,50.0,30.00,SE,138,7.5,9.2,51,0.00,CLR,,0.00,WeatherDisplay:10.37,2013-06-03 23:05:00,
2013-06-03 18:10:00,68.8,49.4,30.00,ESE,118,7.2,9.2,50,0.00,CLR,,0.00,WeatherDisplay:10.37,2013-06-03 23:10:00,
2013-06-03 18:15:00,68.8,50.5,29.99,SE,137,7.0,8.1,52,0.00,CLR,,0.00,WeatherDisplay:10.37,2013-06-03 23:15:00,
2013-06-03 18:20:00,68.7,50.4,30.00,SSE,153,6.7,8.1,52,0.00,CLR,,0.00,WeatherDisplay:10.37,2013-06-03 23:20:00,
2013-06-03 18:25:00,68.6,50.8,30.00,SE,132,5.5,6.9,53,0.00,CLR,,0.00,WeatherDisplay:10.37,2013-06-03 23:25:00,
2013-06-03 18:30:00,68.4,50.1,30.00,East,101,5.4,6.9,52,0.00,CLR,,0.00,WeatherDisplay:10.37,2013-06-03 23:30:00,
2013-06-03 18:35:00,68.4,49.6,30.00,SE,136,5.0,5.8,51,0.00,CLR,,0.00,WeatherDisplay:10.37,2013-06-03 23:35:00,
2013-06-03 18:40:00,68.3,51.5,30.00,SE,126,8.3,11.5,55,0.00,CLR,,0.00,WeatherDisplay:10.37,2013-06-03 23:40:00,
2013-06-03 18:45:00,68.1,50.3,30.00,ESE,118,6.9,9.2,53,0.00,CLR,,0.00,WeatherDisplay:10.37,2013-06-03 23:45:00,
2013-06-03 18:50:00,67.7,50.5,30.00,ESE,110,6.4,10.4,54,0.00,CLR,,0.00,WeatherDisplay:10.37,2013-06-03 23:50:00,
2013-06-03 18:55:00,67.4,50.7,30.01,ESE,119,5.0,6.0,55,0.00,CLR,,0.00,WeatherDisplay:10.37,2013-06-03 23:55:00,
2013-06-03 19:00:00,67.2,49.0,30.01,ESE,115,5.5,8.1,52,0.00,CLR,,0.00,WeatherDisplay:10.37,2013-06-04 00:00:00,
2013-06-03 19:06:00,67.0,49.3,30.01,SE,131,5.2,6.9,53,0.00,CLR,,0.00,WeatherDisplay:10.37,2013-06-04 00:06:00,
2013-06-03 19:11:00,66.9,50.7,30.01,SE,127,5.6,6.9,56,0.00,CLR,,0.00,WeatherDisplay:10.37,2013-06-04 00:11:00,
2013-06-03 19:16:00,66.7,51.0,30.01,SSE,155,6.0,6.9,57,0.00,CLR,,0.00,WeatherDisplay:10.37,2013-06-04 00:16:00,
2013-06-03 19:21:00,66.4,50.2,30.01,SE,127,5.0,8.1,56,0.00,CLR,,0.00,WeatherDisplay:10.37,2013-06-04 00:21:00,
2013-06-03 19:26:00,66.2,51.0,30.02,ESE,115,4.9,6.9,58,0.00,CLR,,0.00,WeatherDisplay:10.37,2013-06-04 00:26:00,
2013-06-03 19:31:00,66.1,51.4,30.02,ESE,117,6.3,6.9,59,0.00,CLR,,0.00,WeatherDisplay:10.37,2013-06-04 00:31:00,
2013-06-03 19:36:00,65.9,51.2,30.02,SE,124,6.1,8.1,59,0.00,CLR,,0.00,WeatherDisplay:10.37,2013-06-04 00:36:00,
2013-06-03 19:41:00,65.8,51.1,30.02,SE,126,5.7,8.1,59,0.00,CLR,,0.00,WeatherDisplay:10.37,2013-06-04 00:41:00,
2013-06-03 19:46:00,65.7,51.0,30.02,ESE,122,6.4,6.9,59,0.00,CLR,,0.00,WeatherDisplay:10.37,2013-06-04 00:46:00,
2013-06-03 19:51:00,65.5,51.2,30.02,ESE,120,7.1,9.2,60,0.00,CLR,,0.00,WeatherDisplay:10.37,2013-06-04 00:51:00,
2013-06-03 19:56:00,65.3,51.1,30.02,ESE,122,5.7,8.1,60,0.00,CLR,,0.00,WeatherDisplay:10.37,2013-06-04 00:56:00,
2013-06-03 20:01:00,65.0,50.8,30.02,SE,135,6.2,9.2,60,0.00,CLR,,0.00,WeatherDisplay:10.37,2013-06-04 01:01:00,
2013-06-03 20:06:00,64.7,51.8,30.02,SE,129,5.2,6.9,63,0.00,CLR,,0.00,WeatherDisplay:10.37,2013-06-04 01:06:00,
2013-06-03 20:11:00,64.2,52.2,30.02,ESE,117,3.9,4.6,65,0.00,CLR,,0.00,WeatherDisplay:10.37,2013-06-04 01:11:00,
2013-06-03 20:16:00,63.7,51.7,30.02,SE,130,4.1,6.9,65,0.00,CLR,,0.00,WeatherDisplay:10.37,2013-06-04 01:16:00,
2013-06-03 20:21:00,63.3,51.3,30.02,SE,125,4.5,4.6,65,0.00,CLR,,0.00,WeatherDisplay:10.37,2013-06-04 01:21:00,
2013-06-03 20:27:00,62.9,52.2,30.02,ESE,120,4.3,5.0,68,0.00,CLR,,0.00,WeatherDisplay:10.37,2013-06-04 01:27:00,
2013-06-03 20:32:00,62.4,52.1,30.02,ESE,118,4.4,6.0,69,0.00,CLR,,0.00,WeatherDisplay:10.37,2013-06-04 01:32:00,
2013-06-03 20:37:00,62.1,52.2,30.02,SE,134,4.1,4.6,70,0.00,CLR,,0.00,WeatherDisplay:10.37,2013-06-04 01:37:00,
2013-06-03 20:42:00,61.6,52.1,30.02,SE,131,4.0,4.6,71,0.00,CLR,,0.00,WeatherDisplay:10.37,2013-06-04 01:42:00,
2013-06-03 20:47:00,61.3,52.2,30.02,ESE,120,4.0,5.0,72,0.00,CLR,,0.00,WeatherDisplay:10.37,2013-06-04 01:47:00,
2013-06-03 20:52:00,60.9,52.2,30.02,SE,132,3.9,4.6,73,0.00,CLR,,0.00,WeatherDisplay:10.37,2013-06-04 01:52:00,
2013-06-03 20:57:00,60.6,52.3,30.03,SE,132,3.5,4.0,74,0.00,CLR,,0.00,WeatherDisplay:10.37,2013-06-04 01:57:00,
2013-06-03 21:02:00,60.4,52.1,30.03,SE,134,3.5,4.6,74,0.00,,,0.00,WeatherDisplay:10.37,2013-06-04 02:02:00,
2013-06-03 21:07:00,60.3,52.0,30.03,SE,130,3.7,4.6,74,0.00,,,0.00,WeatherDisplay:10.37,2013-06-04 02:07:00,
2013-06-03 21:13:00,60.4,52.1,30.03,SSE,148,3.7,5.0,74,0.00,,,0.00,WeatherDisplay:10.37,2013-06-04 02:13:00,
2013-06-03 21:18:00,60.4,52.1,30.03,SE,134,3.7,5.8,74,0.00,,,0.00,WeatherDisplay:10.37,2013-06-04 02:18:00,
2013-06-03 21:23:00,60.3,52.0,30.03,SE,134,4.1,4.1,74,0.00,,,0.00,WeatherDisplay:10.37,2013-06-04 02:23:00,
2013-06-03 21:28:00,60.0,52.1,30.03,SE,127,3.5,4.6,75,0.00,,,0.00,WeatherDisplay:10.37,2013-06-04 02:28:00,
2013-06-03 21:33:00,59.8,51.9,30.03,SE,131,4.4,4.6,75,0.00,,,0.00,WeatherDisplay:10.37,2013-06-04 02:33:00,
2013-06-03 21:38:00,59.7,52.1,30.03,SE,132,4.2,4.6,76,0.00,,,0.00,WeatherDisplay:10.37,2013-06-04 02:38:00,
2013-06-03 21:43:00,59.5,51.9,30.03,ESE,123,3.6,4.6,76,0.00,,,0.00,WeatherDisplay:10.37,2013-06-04 02:43:00,
2013-06-03 21:48:00,59.3,52.1,30.03,SE,131,3.8,5.0,77,0.00,,,0.00,WeatherDisplay:10.37,2013-06-04 02:48:00,
2013-06-03 21:53:00,59.2,52.0,30.03,SE,131,4.1,4.6,77,0.00,,,0.00,WeatherDisplay:10.37,2013-06-04 02:53:00,
2013-06-03 21:58:00,59.1,51.9,30.03,ESE,122,4.4,5.8,77,0.00,,,0.00,WeatherDisplay:10.37,2013-06-04 02:58:00,
2013-06-03 22:03:00,58.9,52.1,30.03,SE,136,4.1,5.0,78,0.00,,,0.00,WeatherDisplay:10.37,2013-06-04 03:03:00,
2013-06-03 22:08:00,58.9,52.1,30.03,ESE,121,3.9,5.8,78,0.00,,,0.00,WeatherDisplay:10.37,2013-06-04 03:08:00,
2013-06-03 22:13:00,58.8,51.6,30.03,SE,134,4.3,6.9,77,0.00,,,0.00,WeatherDisplay:10.37,2013-06-04 03:13:00,
2013-06-03 22:18:00,58.8,51.6,30.03,SE,131,4.2,5.8,77,0.00,,,0.00,WeatherDisplay:10.37,2013-06-04 03:18:00,
2013-06-03 22:23:00,58.6,51.4,30.03,SE,143,3.6,5.0,77,0.00,,,0.00,WeatherDisplay:10.37,2013-06-04 03:23:00,
2013-06-03 22:28:00,58.6,51.4,30.04,SE,140,3.7,4.6,77,0.00,,,0.00,WeatherDisplay:10.37,2013-06-04 03:28:00,
2013-06-03 22:33:00,58.6,51.4,30.04,SE,132,3.8,4.6,77,0.00,,,0.00,WeatherDisplay:10.37,2013-06-04 03:33:00,
2013-06-03 22:38:00,58.4,51.2,30.04,SE,132,3.3,3.5,77,0.00,,,0.00,WeatherDisplay:10.37,2013-06-04 03:38:00,
2013-06-03 22:43:00,58.2,51.4,30.04,SE,125,3.5,3.5,78,0.00,,,0.00,WeatherDisplay:10.37,2013-06-04 03:43:00,
2013-06-03 22:48:00,58.0,51.5,30.04,SE,131,2.1,2.3,79,0.00,,,0.00,WeatherDisplay:10.37,2013-06-04 03:48:00,
2013-06-03 22:54:00,57.5,51.4,30.04,SE,125,2.1,3.5,80,0.00,,,0.00,WeatherDisplay:10.37,2013-06-04 03:54:00,
2013-06-03 22:59:00,57.3,51.5,30.04,ESE,120,1.8,2.3,81,0.00,,,0.00,WeatherDisplay:10.37,2013-06-04 03:59:00,
2013-06-03 23:01:00,57.3,51.5,30.04,ESE,118,2.2,3.5,81,0.00,,,0.00,WeatherDisplay:10.37,2013-06-04 04:01:00,
2013-06-03 23:02:00,57.3,51.5,30.04,ESE,119,2.2,3.5,81,0.00,,,0.00,WeatherDisplay:10.37,2013-06-04 04:02:00,
2013-06-03 23:03:00,57.3,51.5,30.04,ESE,121,2.3,3.5,81,0.00,,,0.00,WeatherDisplay:10.37,2013-06-04 04:03:00,
2013-06-03 23:08:00,57.1,51.7,30.04,ESE,119,1.8,2.3,82,0.00,,,0.00,WeatherDisplay:10.37,2013-06-04 04:08:00,
2013-06-03 23:13:00,57.0,51.6,30.04,ESE,122,2.2,3.5,82,0.00,,,0.00,WeatherDisplay:10.37,2013-06-04 04:13:00,
2013-06-03 23:18:00,56.8,51.4,30.04,ESE,115,1.2,2.3,82,0.00,,,0.00,WeatherDisplay:10.37,2013-06-04 04:18:00,
2013-06-03 23:23:00,56.6,51.2,30.05,ESE,118,1.0,1.1,82,0.00,,,0.00,WeatherDisplay:10.37,2013-06-04 04:23:00,
2013-06-03 23:28:00,56.5,51.4,30.05,ESE,122,0.0,0.0,83,0.00,,,0.00,WeatherDisplay:10.37,2013-06-04 04:28:00,
2013-06-03 23:33:00,56.1,51.3,30.05,ESE,123,0.0,0.0,84,0.00,,,0.00,WeatherDisplay:10.37,2013-06-04 04:33:00,
2013-06-03 23:38:00,55.7,51.6,30.05,ESE,123,0.0,0.0,86,0.00,,,0.00,WeatherDisplay:10.37,2013-06-04 04:38:00,
2013-06-03 23:43:00,55.3,51.5,30.05,SE,132,0.0,0.0,87,0.00,,,0.00,WeatherDisplay:10.37,2013-06-04 04:43:00,
2013-06-03 23:48:00,54.9,51.1,30.05,SE,131,0.0,0.0,87,0.00,,,0.00,WeatherDisplay:10.37,2013-06-04 04:48:00,
2013-06-03 23:53:00,54.7,51.2,30.05,SE,131,0.0,0.0,88,0.00,,,0.00,WeatherDisplay:10.37,2013-06-04 04:53:00,
2013-06-03 23:58:00,54.6,51.1,30.05,SE,131,0.0,0.0,88,0.00,,,0.00,WeatherDisplay:10.37,2013-06-04 04:58:00,